createdAt,value
2023-01-26T00:01:00.961Z,59.58
2023-01-26T00:03:27.473Z,50.78
2023-01-26T00:05:53.856Z,55.67
2023-01-26T00:08:20.312Z,55.88
2023-01-26T00:10:50.354Z,61.05
2023-01-26T00:13:19.979Z,56.05
2023-01-26T00:15:46.644Z,51.88
2023-01-26T00:18:15.864Z,54.88
2023-01-26T00:20:44.787Z,59.40
2023-01-26T00:23:11.180Z,50.33
2023-01-26T00:25:39.865Z,51.33
2023-01-26T00:28:06.262Z,55.75
2023-01-26T00:30:32.624Z,57.78
2023-01-26T00:32:58.991Z,57.88
2023-01-26T00:35:25.420Z,55.90
2023-01-26T00:37:51.839Z,59.65
2023-01-26T00:40:21.368Z,56.63
2023-01-26T00:42:47.855Z,53.58
2023-01-26T00:45:14.299Z,59.63
2023-01-26T00:47:43.573Z,53.47
2023-01-26T00:50:10.984Z,59.72
2023-01-26T00:52:37.696Z,62.58
2023-01-26T00:55:04.354Z,63.03
2023-01-26T00:57:30.733Z,53.38
2023-01-26T00:59:57.112Z,60.33
2023-01-26T01:02:23.639Z,53.90
2023-01-26T01:04:50.029Z,55.40
2023-01-26T01:07:16.396Z,60.15
2023-01-26T01:09:42.736Z,59.28
2023-01-26T01:12:09.153Z,54.95
2023-01-26T01:14:35.529Z,59.00
2023-01-26T01:17:01.948Z,64.50
2023-01-26T01:19:28.510Z,60.15
2023-01-26T01:21:54.838Z,58.92
2023-01-26T01:24:21.208Z,54.63
2023-01-26T01:26:47.599Z,63.08
2023-01-26T01:29:14.565Z,55.85
2023-01-26T01:31:41.540Z,56.63
2023-01-26T01:34:07.951Z,59.83
2023-01-26T01:36:34.339Z,52.35
2023-01-26T01:39:01.282Z,58.70
2023-01-26T01:41:27.653Z,56.25
2023-01-26T01:44:12.809Z,57.78
2023-01-26T01:46:40.048Z,59.17
2023-01-26T01:49:10.736Z,52.22
2023-01-26T01:51:39.507Z,55.92
2023-01-26T01:54:08.673Z,57.65
2023-01-26T01:56:36.982Z,56.80
2023-01-26T01:59:04.573Z,59.85
2023-01-26T02:01:30.914Z,65.22
2023-01-26T02:04:00.313Z,59.05
2023-01-26T02:06:30.649Z,61.63
2023-01-26T02:08:58.045Z,61.10
2023-01-26T02:11:27.189Z,60.75
2023-01-26T02:13:54.228Z,63.17
2023-01-26T02:16:20.731Z,64.97
2023-01-26T02:18:47.474Z,64.75
2023-01-26T02:21:20.032Z,68.40
2023-01-26T02:24:04.908Z,61.53
2023-01-26T02:26:33.117Z,49.53
2023-01-26T02:29:00.415Z,70.47
2023-01-26T02:31:26.961Z,73.63
2023-01-26T02:33:53.433Z,76.50
2023-01-26T02:36:21.577Z,70.25
2023-01-26T02:38:55.747Z,65.25
2023-01-26T02:41:40.944Z,72.53
2023-01-26T02:44:09.050Z,74.70
2023-01-26T02:46:35.428Z,67.32
2023-01-26T02:49:28.243Z,62.92
2023-01-26T02:51:54.585Z,73.82
2023-01-26T02:54:39.380Z,65.82
2023-01-26T02:57:05.822Z,76.47
2023-01-26T02:59:32.164Z,68.05
2023-01-26T03:01:58.743Z,71.40
2023-01-26T03:04:25.275Z,73.72
2023-01-26T03:06:51.612Z,73.25
2023-01-26T03:09:17.988Z,73.68
2023-01-26T03:11:44.363Z,82.93
2023-01-26T03:14:11.525Z,72.90
2023-01-26T03:16:41.318Z,71.35
2023-01-26T03:19:09.261Z,75.80
2023-01-26T03:21:54.538Z,70.63
2023-01-26T03:24:39.422Z,81.95
2023-01-26T03:27:24.844Z,74.70
2023-01-26T03:29:51.541Z,73.75
2023-01-26T03:32:17.993Z,83.53
2023-01-26T03:34:44.571Z,80.45
2023-01-26T03:37:11.373Z,94.03
2023-01-26T03:39:56.256Z,82.93
2023-01-26T03:42:41.132Z,70.70
2023-01-26T03:45:26.415Z,81.80
2023-01-26T03:48:11.344Z,74.68
2023-01-26T03:50:56.416Z,62.55
2023-01-26T03:53:42.339Z,79.15
2023-01-26T03:56:23.218Z,85.75
2023-01-26T03:58:53.540Z,84.65
2023-01-26T04:01:21.135Z,90.95
2023-01-26T04:04:06.666Z,79.97
2023-01-26T04:06:52.173Z,94.30
2023-01-26T04:09:18.571Z,87.22
2023-01-26T04:11:45.081Z,85.28
2023-01-26T04:14:31.321Z,90.00
2023-01-26T04:17:22.157Z,77.78
2023-01-26T04:20:07.671Z,93.63
2023-01-26T04:22:45.182Z,103.38
2023-01-26T04:25:13.777Z,94.97
2023-01-26T04:27:40.958Z,87.28
2023-01-26T04:30:08.750Z,90.18
2023-01-26T04:32:35.411Z,94.00
2023-01-26T04:35:01.905Z,91.60
2023-01-26T04:37:28.261Z,85.90
2023-01-26T04:39:54.636Z,108.82
2023-01-26T04:42:21.093Z,96.78
2023-01-26T04:44:47.535Z,109.85
2023-01-26T04:47:13.922Z,100.72
2023-01-26T04:49:40.392Z,111.53
2023-01-26T04:52:06.780Z,103.20
2023-01-26T04:54:33.180Z,100.07
2023-01-26T04:56:59.556Z,103.47
2023-01-26T04:59:25.927Z,97.07
2023-01-26T05:01:52.313Z,100.00
2023-01-26T05:04:18.955Z,88.97
2023-01-26T05:06:45.477Z,100.28
2023-01-26T05:09:11.894Z,95.32
2023-01-26T05:11:38.303Z,96.78
2023-01-26T05:14:04.647Z,99.65
2023-01-26T05:16:32.037Z,91.95
2023-01-26T05:18:58.451Z,97.28
2023-01-26T05:21:27.286Z,92.60
2023-01-26T05:23:54.247Z,88.97
2023-01-26T05:26:20.818Z,106.18
2023-01-26T05:28:47.238Z,91.97
2023-01-26T05:31:13.579Z,96.75
2023-01-26T05:33:40.012Z,101.05
2023-01-26T05:36:06.907Z,85.40
2023-01-26T05:38:33.729Z,101.80
2023-01-26T05:41:00.153Z,96.32
2023-01-26T05:43:26.504Z,90.43
2023-01-26T05:45:52.931Z,95.28
2023-01-26T05:48:19.376Z,88.18
2023-01-26T05:50:45.816Z,90.75
2023-01-26T05:53:12.277Z,90.70
2023-01-26T05:55:39.014Z,90.28
2023-01-26T05:58:05.338Z,91.97
2023-01-26T06:00:31.811Z,82.25
2023-01-26T06:02:58.164Z,93.90
2023-01-26T06:05:24.526Z,90.03
2023-01-26T06:07:50.918Z,88.93
2023-01-26T06:10:17.360Z,80.40
2023-01-26T06:12:43.741Z,82.15
2023-01-26T06:15:12.381Z,88.60
2023-01-26T06:17:38.868Z,87.70
2023-01-26T06:20:06.093Z,85.38
2023-01-26T06:22:32.628Z,86.07
2023-01-26T06:24:58.993Z,87.25
2023-01-26T06:27:25.464Z,92.28
2023-01-26T06:29:51.794Z,83.63
2023-01-26T06:32:18.297Z,92.40
2023-01-26T06:34:44.686Z,91.18
2023-01-26T06:37:11.067Z,92.85
2023-01-26T06:39:37.581Z,97.47
2023-01-26T06:42:04.259Z,88.68
2023-01-26T06:44:32.441Z,92.70
2023-01-26T06:46:58.860Z,92.05
2023-01-26T06:49:25.236Z,92.25
2023-01-26T06:51:57.861Z,96.20
2023-01-26T06:54:24.475Z,90.70
2023-01-26T06:56:53.363Z,94.32
2023-01-26T06:59:26.993Z,90.32
2023-01-26T07:01:58.868Z,93.22
2023-01-26T07:04:28.407Z,93.03
2023-01-26T07:06:54.757Z,94.90
2023-01-26T07:09:21.084Z,91.70
2023-01-26T07:11:47.523Z,94.97
2023-01-26T07:14:13.863Z,89.60
2023-01-26T07:16:40.215Z,94.95
2023-01-26T07:19:06.802Z,88.07
2023-01-26T07:21:33.153Z,89.57
2023-01-26T07:23:59.609Z,94.43
2023-01-26T07:26:26.027Z,91.78
2023-01-26T07:28:52.456Z,93.43
2023-01-26T07:31:19.153Z,83.05
2023-01-26T07:33:45.624Z,96.05
2023-01-26T07:36:12.109Z,95.80
2023-01-26T07:38:38.629Z,91.72
2023-01-26T07:41:08.811Z,92.32
2023-01-26T07:43:36.296Z,86.13
2023-01-26T07:46:02.976Z,79.13
2023-01-26T07:48:32.150Z,81.40
2023-01-26T07:50:59.900Z,77.50
2023-01-26T07:53:29.218Z,78.70
2023-01-26T07:56:09.113Z,84.70
2023-01-26T07:58:35.733Z,75.63
2023-01-26T08:01:06.176Z,79.75
2023-01-26T08:03:32.741Z,78.65
2023-01-26T08:05:59.124Z,74.30
2023-01-26T08:08:26.168Z,72.90
2023-01-26T08:10:55.433Z,72.03
2023-01-26T08:13:34.462Z,68.05
2023-01-26T08:16:02.827Z,72.18
2023-01-26T08:18:29.365Z,73.38
2023-01-26T08:20:55.813Z,73.20
2023-01-26T08:23:22.145Z,73.35
2023-01-26T08:25:48.636Z,75.80
2023-01-26T08:28:15.097Z,80.57
2023-01-26T08:30:41.868Z,68.93
2023-01-26T08:33:08.361Z,69.15
2023-01-26T08:35:34.710Z,72.07
2023-01-26T08:38:01.135Z,80.82
2023-01-26T08:40:27.721Z,75.03
2023-01-26T08:42:55.841Z,86.70
2023-01-26T08:45:22.240Z,74.68
2023-01-26T08:47:49.211Z,63.38
2023-01-26T08:50:15.567Z,73.20
2023-01-26T08:52:41.943Z,62.20
2023-01-26T08:55:08.475Z,70.50
2023-01-26T08:57:34.882Z,73.82
2023-01-26T09:00:01.248Z,80.13
2023-01-26T09:02:27.813Z,64.53
2023-01-26T09:04:54.295Z,68.65
2023-01-26T09:07:20.632Z,73.45
2023-01-26T09:09:47.030Z,67.13
2023-01-26T09:12:13.387Z,62.90
2023-01-26T09:14:41.120Z,60.60
2023-01-26T09:17:07.879Z,64.45
2023-01-26T09:19:34.336Z,72.80
2023-01-26T09:22:00.743Z,72.28
2023-01-26T09:24:27.322Z,57.20
2023-01-26T09:26:53.753Z,61.58
2023-01-26T09:29:20.413Z,61.03
2023-01-26T09:31:47.012Z,60.88
2023-01-26T09:34:13.425Z,66.82
2023-01-26T09:36:41.470Z,74.00
2023-01-26T09:39:08.413Z,70.28
2023-01-26T09:41:43.025Z,61.22
2023-01-26T09:44:10.283Z,67.78
2023-01-26T09:46:42.901Z,66.60
2023-01-26T09:49:17.522Z,69.13
2023-01-26T09:52:00.436Z,71.43
2023-01-26T09:54:30.246Z,78.80
2023-01-26T09:56:56.593Z,70.60
2023-01-26T09:59:44.463Z,73.03
2023-01-26T10:02:29.440Z,63.75
2023-01-26T10:04:57.531Z,49.03
2023-01-26T10:07:24.095Z,60.53
2023-01-26T10:09:51.263Z,59.00
2023-01-26T10:12:35.950Z,61.70
2023-01-26T10:15:22.670Z,46.80
2023-01-26T10:17:50.311Z,69.90
2023-01-26T10:20:32.240Z,61.72
2023-01-26T10:23:07.651Z,55.92
2023-01-26T10:25:35.283Z,54.97
2023-01-26T10:28:21.920Z,64.95
2023-01-26T10:30:48.996Z,61.83
2023-01-26T10:33:18.110Z,57.20
2023-01-26T10:35:44.721Z,56.00
2023-01-26T10:38:47.013Z,58.50
2023-01-26T10:41:16.971Z,60.75
2023-01-26T10:43:50.163Z,66.38
2023-01-26T10:46:30.308Z,63.03
2023-01-26T10:48:58.256Z,61.58
2023-01-26T10:51:26.453Z,59.60
2023-01-26T10:54:12.842Z,68.00
2023-01-26T10:56:54.759Z,53.10
2023-01-26T10:59:27.227Z,51.63
2023-01-26T11:01:53.708Z,51.25
2023-01-26T11:04:20.586Z,50.33
2023-01-26T11:06:47.262Z,48.63
2023-01-26T11:09:13.659Z,49.92
2023-01-26T11:11:40.371Z,49.15
2023-01-26T11:14:16.978Z,49.78
2023-01-26T11:16:50.213Z,41.13
2023-01-26T11:19:21.000Z,40.88
2023-01-26T11:21:50.655Z,45.35
2023-01-26T11:24:35.892Z,44.50
2023-01-26T11:27:41.378Z,39.03
2023-01-26T11:30:16.477Z,39.50
2023-01-26T11:32:50.909Z,37.30
2023-01-26T11:35:29.002Z,40.60
2023-01-26T11:37:55.477Z,42.15
2023-01-26T11:40:25.145Z,33.28
2023-01-26T11:43:17.346Z,37.33
2023-01-26T11:45:46.512Z,41.47
2023-01-26T11:48:22.368Z,38.65
2023-01-26T11:50:56.541Z,39.85
2023-01-26T11:53:32.286Z,39.55
2023-01-26T11:56:05.550Z,36.08
2023-01-26T11:58:35.205Z,42.60
2023-01-26T12:01:03.235Z,31.77
2023-01-26T12:03:46.949Z,38.30
2023-01-26T12:06:16.765Z,40.88
2023-01-26T12:08:45.196Z,33.47
2023-01-26T12:11:23.684Z,39.72
2023-01-26T12:13:56.179Z,35.33
2023-01-26T12:16:41.468Z,42.75
2023-01-26T12:19:26.546Z,37.60
2023-01-26T12:21:54.708Z,35.80
2023-01-26T12:25:04.984Z,37.83
2023-01-26T12:27:25.814Z,42.80
2023-01-26T12:29:52.120Z,45.30
2023-01-26T12:32:18.630Z,33.92
2023-01-26T12:34:45.064Z,39.00
2023-01-26T12:37:20.403Z,39.70
2023-01-26T12:42:19.064Z,39.58
2023-01-26T12:44:48.463Z,32.90
2023-01-26T12:47:17.901Z,38.15
2023-01-26T12:49:50.372Z,33.50
2023-01-26T12:52:16.892Z,35.40
2023-01-26T12:54:48.986Z,41.80
2023-01-26T12:57:20.177Z,40.78
2023-01-26T12:59:49.123Z,45.30
2023-01-26T13:02:15.779Z,37.53
2023-01-26T13:04:43.593Z,35.38
2023-01-26T13:07:28.881Z,39.65
2023-01-26T13:10:08.356Z,37.38
2023-01-26T13:12:46.761Z,37.75
2023-01-26T13:15:17.557Z,35.17
2023-01-26T13:18:04.284Z,35.25
2023-01-26T13:20:39.788Z,39.40
2023-01-26T13:23:26.152Z,31.60
2023-01-26T13:26:22.117Z,28.30
2023-01-26T13:28:48.969Z,30.77
2023-01-26T13:31:29.396Z,23.27
2023-01-26T13:33:57.284Z,29.17
2023-01-26T13:36:23.978Z,25.60
2023-01-26T13:38:59.320Z,30.73
2023-01-26T13:43:51.911Z,25.35
2023-01-26T13:46:22.407Z,25.52
2023-01-26T13:48:51.606Z,30.10
2023-01-26T13:51:23.203Z,22.02
2023-01-26T13:54:10.803Z,30.08
2023-01-26T13:56:39.024Z,26.13
2023-01-26T13:59:06.967Z,22.30
2023-01-26T14:01:33.834Z,28.13
2023-01-26T14:04:06.823Z,27.73
2023-01-26T14:06:36.317Z,33.63
2023-01-26T14:09:03.130Z,34.22
2023-01-26T14:11:30.999Z,25.10
2023-01-26T14:13:58.738Z,30.13
2023-01-26T14:16:28.765Z,29.02
2023-01-26T14:19:10.413Z,30.58
2023-01-26T14:21:46.057Z,31.40
2023-01-26T14:24:12.576Z,27.02
2023-01-26T14:26:40.572Z,29.75
2023-01-26T14:29:11.818Z,30.80
2023-01-26T14:31:38.199Z,24.33
2023-01-26T14:34:08.629Z,28.08
2023-01-26T14:36:39.194Z,24.30
2023-01-26T14:39:19.040Z,29.23
2023-01-26T14:41:45.806Z,24.63
2023-01-26T14:44:12.897Z,24.10
2023-01-26T14:46:52.756Z,23.75
2023-01-26T14:49:22.742Z,27.23
2023-01-26T14:51:51.849Z,31.00
2023-01-26T14:54:20.887Z,26.48
2023-01-26T14:56:48.715Z,35.95
2023-01-26T14:59:20.287Z,32.42
2023-01-26T15:01:47.365Z,35.95
2023-01-26T15:04:26.145Z,35.45
2023-01-26T15:06:52.551Z,29.48
2023-01-26T15:09:25.196Z,31.58
2023-01-26T15:12:17.737Z,28.40
2023-01-26T15:14:56.560Z,35.17
2023-01-26T15:17:38.040Z,32.15
2023-01-26T15:20:24.711Z,34.95
2023-01-26T15:22:52.235Z,35.72
2023-01-26T15:25:20.946Z,30.55
2023-01-26T15:27:52.088Z,32.90
2023-01-26T15:30:20.265Z,33.08
2023-01-26T15:32:46.595Z,28.92
2023-01-26T15:35:19.092Z,33.42
2023-01-26T15:37:45.554Z,38.65
2023-01-26T15:40:15.089Z,32.47
2023-01-26T15:42:41.753Z,30.67
2023-01-26T15:45:26.283Z,29.92
2023-01-26T15:47:52.738Z,32.33
2023-01-26T15:50:27.836Z,29.45
2023-01-26T15:52:54.786Z,29.05
2023-01-26T15:55:24.351Z,23.05
2023-01-26T15:57:51.591Z,28.52
2023-01-26T16:00:18.333Z,28.33
2023-01-26T16:02:44.804Z,27.33
2023-01-26T16:05:18.833Z,26.38
2023-01-26T16:07:45.896Z,26.05
2023-01-26T16:10:12.386Z,23.65
2023-01-26T16:12:38.798Z,24.77
2023-01-26T16:15:31.534Z,29.70
2023-01-26T16:17:58.069Z,31.48
2023-01-26T16:20:24.423Z,28.67
2023-01-26T16:22:51.080Z,25.70
2023-01-26T16:25:27.652Z,25.55
2023-01-26T16:27:54.607Z,22.90
2023-01-26T16:30:21.458Z,35.30
2023-01-26T16:32:48.239Z,28.38
2023-01-26T16:35:16.141Z,27.40
2023-01-26T16:37:42.866Z,30.50
2023-01-26T16:40:11.210Z,29.48
2023-01-26T16:42:40.390Z,27.42
2023-01-26T16:45:07.493Z,25.73
2023-01-26T16:47:33.956Z,28.60
2023-01-26T16:50:00.454Z,30.20
2023-01-26T16:52:26.928Z,26.90
2023-01-26T16:54:54.314Z,28.17
2023-01-26T16:57:20.843Z,28.08
2023-01-26T16:59:47.366Z,26.98
2023-01-26T17:02:23.049Z,30.30
2023-01-26T17:04:49.657Z,32.10
2023-01-26T17:07:16.044Z,25.98
2023-01-26T17:09:42.588Z,29.85
2023-01-26T17:12:10.399Z,31.83
2023-01-26T17:14:36.989Z,27.27
2023-01-26T17:17:03.687Z,33.80
2023-01-26T17:19:30.067Z,29.52
2023-01-26T17:21:57.799Z,30.73
2023-01-26T17:24:24.349Z,27.73
2023-01-26T17:26:50.785Z,30.25
2023-01-26T17:29:17.119Z,24.67
2023-01-26T17:31:43.705Z,31.63
2023-01-26T17:34:10.032Z,34.47
2023-01-26T17:36:36.360Z,28.42
2023-01-26T17:39:02.916Z,33.03
2023-01-26T17:41:29.286Z,30.13
2023-01-26T17:43:55.663Z,29.92
2023-01-26T17:46:22.151Z,28.02
2023-01-26T17:48:49.213Z,31.17
2023-01-26T17:51:17.106Z,30.70
2023-01-26T17:53:44.591Z,32.42
2023-01-26T17:56:12.445Z,34.38
2023-01-26T17:58:39.088Z,33.00
2023-01-26T18:01:06.529Z,32.75
2023-01-26T18:03:33.367Z,31.17
2023-01-26T18:05:59.759Z,35.75
2023-01-26T18:08:26.803Z,38.88
2023-01-26T18:11:02.824Z,39.33
2023-01-26T18:13:30.093Z,43.78
2023-01-26T18:15:56.512Z,41.22
2023-01-26T18:18:23.678Z,49.35
2023-01-26T18:20:50.155Z,46.85
2023-01-26T18:23:16.961Z,48.25
2023-01-26T18:25:44.434Z,51.35
2023-01-26T18:28:11.280Z,56.25
2023-01-26T18:30:38.142Z,56.03
2023-01-26T18:33:04.705Z,60.45
2023-01-26T18:35:31.522Z,51.88
2023-01-26T18:37:58.192Z,51.42
2023-01-26T18:40:25.028Z,45.05
2023-01-26T18:42:54.888Z,51.72
2023-01-26T18:45:21.349Z,51.90
2023-01-26T18:47:48.500Z,46.08
2023-01-26T18:50:15.179Z,45.25
2023-01-26T18:52:41.967Z,45.33
2023-01-26T18:55:08.880Z,48.60
2023-01-26T18:57:35.556Z,42.95
2023-01-26T19:00:02.492Z,52.15
2023-01-26T19:02:33.806Z,60.90
2023-01-26T19:05:00.408Z,64.75
2023-01-26T19:07:26.820Z,64.90
2023-01-26T19:09:53.235Z,66.80
2023-01-26T19:12:19.642Z,69.07
2023-01-26T19:14:45.979Z,72.05
2023-01-26T19:17:12.581Z,58.33
2023-01-26T19:19:41.028Z,67.25
2023-01-26T19:22:07.668Z,56.20
2023-01-26T19:24:34.121Z,55.58
2023-01-26T19:27:00.574Z,61.55
2023-01-26T19:29:27.001Z,53.45
2023-01-26T19:31:53.457Z,56.22
2023-01-26T19:34:19.847Z,61.60
2023-01-26T19:36:46.859Z,56.45
2023-01-26T19:39:13.860Z,54.95
2023-01-26T19:41:40.632Z,76.80
2023-01-26T19:44:07.280Z,68.22
2023-01-26T19:46:33.708Z,58.25
2023-01-26T19:49:00.170Z,61.47
2023-01-26T19:51:27.122Z,67.10
2023-01-26T19:53:55.233Z,54.85
2023-01-26T19:56:22.705Z,59.13
2023-01-26T19:58:50.818Z,58.58
2023-01-26T20:01:17.458Z,48.72
2023-01-26T20:03:43.875Z,66.95
2023-01-26T20:06:14.943Z,57.00
2023-01-26T20:08:41.542Z,52.92
2023-01-26T20:11:08.828Z,48.20
2023-01-26T20:13:35.662Z,37.00
2023-01-26T20:16:02.842Z,44.42
2023-01-26T20:18:29.179Z,37.22
2023-01-26T20:20:57.395Z,36.50
2023-01-26T20:23:25.402Z,44.90
2023-01-26T20:25:51.760Z,43.63
2023-01-26T20:28:18.673Z,45.63
2023-01-26T20:30:45.154Z,46.00
2023-01-26T20:33:11.625Z,44.50
2023-01-26T20:35:45.551Z,44.75
2023-01-26T20:38:11.999Z,48.65
2023-01-26T20:40:39.211Z,46.70
2023-01-26T20:43:05.565Z,46.33
2023-01-26T20:45:32.090Z,35.35
2023-01-26T20:48:01.612Z,40.78
2023-01-26T20:50:27.960Z,39.97
2023-01-26T20:52:54.871Z,40.80
2023-01-26T20:55:21.301Z,36.88
2023-01-26T20:57:47.716Z,38.85
2023-01-26T21:00:14.580Z,41.72
2023-01-26T21:02:41.278Z,38.50
2023-01-26T21:05:08.507Z,40.30
2023-01-26T21:07:34.918Z,36.17
2023-01-26T21:10:01.266Z,39.75
2023-01-26T21:12:28.055Z,36.50
2023-01-26T21:14:55.956Z,36.03
2023-01-26T21:17:22.964Z,35.83
2023-01-26T21:19:50.034Z,37.80
2023-01-26T21:22:16.824Z,36.75
2023-01-26T21:24:43.259Z,35.25
2023-01-26T21:27:09.591Z,33.85
2023-01-26T21:29:36.047Z,37.45
2023-01-26T21:32:02.436Z,39.58
2023-01-26T21:34:28.777Z,34.92
2023-01-26T21:36:55.219Z,35.78
2023-01-26T21:39:22.271Z,34.92
2023-01-26T21:41:57.624Z,39.22
2023-01-26T21:44:26.014Z,36.70
2023-01-26T21:46:53.991Z,41.67
2023-01-26T21:49:20.553Z,40.55
2023-01-26T21:52:05.449Z,39.83
2023-01-26T21:54:32.374Z,38.40
2023-01-26T21:56:59.330Z,42.55
2023-01-26T21:59:25.827Z,39.40
2023-01-26T22:01:55.981Z,46.10
2023-01-26T22:04:23.655Z,49.40
2023-01-26T22:06:50.635Z,53.63
2023-01-26T22:09:17.501Z,42.95
2023-01-26T22:11:44.292Z,47.55
2023-01-26T22:14:15.033Z,53.28
2023-01-26T22:16:41.562Z,55.33
2023-01-26T22:19:08.950Z,53.72
2023-01-26T22:21:35.405Z,50.10
2023-01-26T22:24:02.081Z,53.13
2023-01-26T22:26:28.775Z,51.03
2023-01-26T22:28:56.328Z,48.55
2023-01-26T22:31:26.995Z,41.22
2023-01-26T22:33:54.140Z,42.00
2023-01-26T22:36:21.385Z,39.15
2023-01-26T22:38:48.151Z,45.08
2023-01-26T22:41:22.379Z,40.80
2023-01-26T22:43:54.487Z,41.83
2023-01-26T22:46:22.340Z,40.50
2023-01-26T22:48:49.448Z,33.10
2023-01-26T22:51:20.504Z,38.35
2023-01-26T22:53:48.073Z,38.85
2023-01-26T22:56:14.508Z,40.60
2023-01-26T22:58:57.096Z,51.38
2023-01-26T23:01:24.974Z,44.40
2023-01-26T23:03:52.263Z,47.13
2023-01-26T23:06:19.104Z,49.63
2023-01-26T23:08:45.479Z,41.97
2023-01-26T23:11:13.373Z,46.15
2023-01-26T23:13:42.297Z,45.65
2023-01-26T23:16:08.962Z,44.38
2023-01-26T23:18:35.825Z,46.70
2023-01-26T23:21:02.303Z,44.92
2023-01-26T23:23:29.215Z,44.97
2023-01-26T23:25:56.103Z,41.80
2023-01-26T23:28:23.676Z,46.88
2023-01-26T23:30:50.945Z,50.88
2023-01-26T23:33:18.069Z,43.83
2023-01-26T23:35:44.808Z,42.80
2023-01-26T23:38:11.321Z,43.15
2023-01-26T23:40:38.366Z,44.30
2023-01-26T23:43:16.130Z,41.10
2023-01-26T23:45:44.405Z,37.35
2023-01-26T23:48:13.726Z,42.85
2023-01-26T23:50:40.491Z,47.53
2023-01-26T23:53:06.958Z,43.00
2023-01-26T23:55:33.582Z,51.45
2023-01-26T23:57:59.908Z,53.33
